createdAt,value
2019-05-07T00:00:38.486Z,98.88
2019-05-07T00:01:38.476Z,98.52
2019-05-07T00:02:38.466Z,98.57
2019-05-07T00:03:38.467Z,99.40
2019-05-07T00:04:38.766Z,98.88
2019-05-07T00:05:38.430Z,99.14
2019-05-07T00:06:38.418Z,99.44
2019-05-07T00:07:38.411Z,99.51
2019-05-07T00:08:38.411Z,99.51
2019-05-07T00:09:38.392Z,99.51
2019-05-07T00:10:38.412Z,99.51
2019-05-07T00:11:38.372Z,99.55
2019-05-07T00:12:38.359Z,99.51
2019-05-07T00:13:38.375Z,99.30
2019-05-07T00:14:38.337Z,99.55
2019-05-07T00:15:38.322Z,99.40
2019-05-07T00:16:38.315Z,99.44
2019-05-07T00:17:38.305Z,99.30
2019-05-07T00:18:38.322Z,99.30
2019-05-07T00:19:38.279Z,99.44
2019-05-07T00:20:38.273Z,99.61
2019-05-07T00:21:38.260Z,99.44
2019-05-07T00:22:38.246Z,99.55
2019-05-07T00:23:38.273Z,99.65
2019-05-07T00:24:38.226Z,99.40
2019-05-07T00:25:38.218Z,99.55
2019-05-07T00:26:38.205Z,99.71
2019-05-07T00:27:38.194Z,99.40
2019-05-07T00:28:38.184Z,99.55
2019-05-07T00:29:38.204Z,99.34
2019-05-07T00:30:38.164Z,99.65
2019-05-07T00:31:38.162Z,99.51
2019-05-07T00:32:38.155Z,99.61
2019-05-07T00:33:38.132Z,99.61
2019-05-07T00:34:38.148Z,99.14
2019-05-07T00:35:38.121Z,99.55
2019-05-07T00:36:38.100Z,99.24
2019-05-07T00:37:38.091Z,99.65
2019-05-07T00:38:38.079Z,99.14
2019-05-07T00:39:38.087Z,99.14
2019-05-07T00:40:38.056Z,99.14
2019-05-07T00:41:39.190Z,99.86
2019-05-07T00:42:38.037Z,99.55
2019-05-07T00:43:38.025Z,99.55
2019-05-07T00:44:38.043Z,99.55
2019-05-07T00:45:38.006Z,99.55
2019-05-07T00:46:37.993Z,99.55
2019-05-07T00:47:37.989Z,99.61
2019-05-07T00:48:37.985Z,99.09
2019-05-07T00:49:37.989Z,99.34
2019-05-07T00:50:37.950Z,99.19
2019-05-07T00:51:37.939Z,99.55
2019-05-07T00:52:37.926Z,99.76
2019-05-07T00:53:37.933Z,99.14
2019-05-07T00:54:37.936Z,99.76
2019-05-07T00:55:37.895Z,99.86
2019-05-07T00:56:37.882Z,99.86
2019-05-07T00:57:37.875Z,99.34
2019-05-07T00:58:37.871Z,99.86
2019-05-07T00:59:37.880Z,99.86
2019-05-07T01:00:37.845Z,99.65
2019-05-07T01:01:37.830Z,99.55
2019-05-07T01:02:37.822Z,99.65
2019-05-07T01:03:37.831Z,99.55
2019-05-07T01:04:37.826Z,99.44
2019-05-07T01:05:37.785Z,99.34
2019-05-07T01:06:37.787Z,99.65
2019-05-07T01:07:37.769Z,99.14
2019-05-07T01:08:37.754Z,99.14
2019-05-07T01:09:37.775Z,99.60
2019-05-07T01:10:37.742Z,99.65
2019-05-07T01:11:37.727Z,99.70
2019-05-07T01:12:37.716Z,99.60
2019-05-07T01:13:37.708Z,99.65
2019-05-07T01:14:37.991Z,99.08
2019-05-07T01:15:37.686Z,99.29
2019-05-07T01:16:37.677Z,99.91
2019-05-07T01:17:37.663Z,99.29
2019-05-07T01:18:37.653Z,99.29
2019-05-07T01:19:37.642Z,99.49
2019-05-07T01:20:37.661Z,99.08
2019-05-07T01:21:37.624Z,99.99
2019-05-07T01:22:37.606Z,99.80
2019-05-07T01:23:37.601Z,99.60
2019-05-07T01:24:37.596Z,99.39
2019-05-07T01:25:37.604Z,99.39
2019-05-07T01:26:37.567Z,99.39
2019-05-07T01:27:37.556Z,99.23
2019-05-07T01:28:37.552Z,99.33
2019-05-07T01:29:37.534Z,99.33
2019-05-07T01:30:37.549Z,99.80
2019-05-07T01:31:37.510Z,99.85
2019-05-07T01:32:37.500Z,99.33
2019-05-07T01:33:37.494Z,99.85
2019-05-07T01:34:37.487Z,99.95
2019-05-07T01:35:37.496Z,99.74
2019-05-07T01:36:37.460Z,99.64
2019-05-07T01:37:37.447Z,99.74
2019-05-07T01:38:37.441Z,99.64
2019-05-07T01:39:37.430Z,99.54
2019-05-07T01:40:37.447Z,99.85
2019-05-07T01:41:37.407Z,99.74
2019-05-07T01:42:37.396Z,99.58
2019-05-07T01:43:37.387Z,99.85
2019-05-07T01:44:37.375Z,99.74
2019-05-07T01:45:48.190Z,99.95
2019-05-07T01:46:38.354Z,99.99
2019-05-07T01:47:37.343Z,99.74
2019-05-07T01:48:37.331Z,99.74
2019-05-07T01:49:37.324Z,99.95
2019-05-07T01:50:37.315Z,99.85
2019-05-07T01:51:37.327Z,99.85
2019-05-07T01:52:37.296Z,99.85
2019-05-07T01:53:37.282Z,99.74
2019-05-07T01:54:37.291Z,99.99
2019-05-07T01:55:37.259Z,99.99
2019-05-07T01:56:37.281Z,99.99
2019-05-07T01:57:37.235Z,99.85
2019-05-07T01:58:37.232Z,99.69
2019-05-07T01:59:37.216Z,99.99
2019-05-07T02:00:37.212Z,99.90
2019-05-07T02:01:37.219Z,99.99
2019-05-07T02:02:37.183Z,99.99
2019-05-07T02:03:37.180Z,99.99
2019-05-07T02:04:37.165Z,99.99
2019-05-07T02:05:37.177Z,99.99
2019-05-07T02:06:37.183Z,99.99
2019-05-07T02:07:37.130Z,99.99
2019-05-07T02:08:37.118Z,99.99
2019-05-07T02:09:37.113Z,99.99
2019-05-07T02:10:37.102Z,99.99
2019-05-07T02:11:37.088Z,99.99
2019-05-07T02:12:37.110Z,99.99
2019-05-07T02:13:37.071Z,99.99
2019-05-07T02:14:37.058Z,99.99
2019-05-07T02:15:37.046Z,99.99
2019-05-07T02:16:37.040Z,99.99
2019-05-07T02:17:37.054Z,99.99
2019-05-07T02:18:37.024Z,99.99
2019-05-07T02:19:37.006Z,99.99
2019-05-07T02:20:36.998Z,99.99
2019-05-07T02:21:36.982Z,99.99
2019-05-07T02:22:37.002Z,99.99
2019-05-07T02:23:36.967Z,99.99
2019-05-07T02:24:36.954Z,99.99
2019-05-07T02:25:36.942Z,99.99
2019-05-07T02:26:36.937Z,99.99
2019-05-07T02:27:36.957Z,99.99
2019-05-07T02:28:36.913Z,99.99
2019-05-07T02:29:38.241Z,99.99
2019-05-07T02:30:36.901Z,99.99
2019-05-07T02:31:36.879Z,99.99
2019-05-07T02:32:36.905Z,99.99
2019-05-07T02:33:36.860Z,99.99
2019-05-07T02:34:36.863Z,99.99
2019-05-07T02:35:36.847Z,99.99
2019-05-07T02:36:36.882Z,99.99
2019-05-07T02:37:48.461Z,99.99
2019-05-07T02:38:37.814Z,99.99
2019-05-07T02:39:36.801Z,99.99
2019-05-07T02:40:36.792Z,99.99
2019-05-07T02:41:36.777Z,99.99
2019-05-07T02:42:36.809Z,99.99
2019-05-07T02:43:36.757Z,99.99
2019-05-07T02:44:36.770Z,99.99
2019-05-07T02:45:36.745Z,99.99
2019-05-07T02:46:36.839Z,99.99
2019-05-07T02:47:36.758Z,99.99
2019-05-07T02:48:36.728Z,99.99
2019-05-07T02:49:36.697Z,99.99
2019-05-07T02:50:36.686Z,99.99
2019-05-07T02:51:36.692Z,99.99
2019-05-07T02:52:36.661Z,99.99
2019-05-07T02:53:36.677Z,99.99
2019-05-07T02:54:36.647Z,99.99
2019-05-07T02:55:36.628Z,99.99
2019-05-07T02:56:36.626Z,99.99
2019-05-07T02:57:36.672Z,99.99
2019-05-07T02:58:36.625Z,99.99
2019-05-07T02:59:36.595Z,99.99
2019-05-07T03:00:36.584Z,99.99
2019-05-07T03:01:36.568Z,99.99
2019-05-07T03:02:36.569Z,99.99
2019-05-07T03:03:36.575Z,99.99
2019-05-07T03:04:36.535Z,99.99
2019-05-07T03:05:36.529Z,99.99
2019-05-07T03:06:36.517Z,99.99
2019-05-07T03:07:36.502Z,99.99
2019-05-07T03:08:36.527Z,99.99
2019-05-07T03:09:36.618Z,99.99
2019-05-07T03:10:36.470Z,99.99
2019-05-07T03:11:36.464Z,99.99
2019-05-07T03:12:36.454Z,99.99
2019-05-07T03:13:36.473Z,99.99
2019-05-07T03:14:36.435Z,99.99
2019-05-07T03:15:36.425Z,99.99
2019-05-07T03:16:43.710Z,99.99
2019-05-07T03:17:37.400Z,99.99
2019-05-07T03:18:36.415Z,99.99
2019-05-07T03:19:36.381Z,99.99
2019-05-07T03:20:36.370Z,99.99
2019-05-07T03:21:36.361Z,99.99
2019-05-07T03:22:36.346Z,99.99
2019-05-07T03:23:36.377Z,99.99
2019-05-07T03:24:36.324Z,99.99
2019-05-07T03:25:36.314Z,99.99
2019-05-07T03:26:36.303Z,99.99
2019-05-07T03:27:36.293Z,99.99
2019-05-07T03:28:36.310Z,99.99
2019-05-07T03:29:36.271Z,99.99
2019-05-07T03:30:36.677Z,99.99
2019-05-07T03:31:36.872Z,99.99
2019-05-07T03:32:38.947Z,99.99
2019-05-07T03:33:37.046Z,99.99
2019-05-07T03:34:37.344Z,99.99
2019-05-07T03:35:37.631Z,99.99
2019-05-07T03:36:36.198Z,99.99
2019-05-07T03:37:36.703Z,99.99
2019-05-07T03:38:36.207Z,99.99
2019-05-07T03:39:36.178Z,99.99
2019-05-07T03:40:36.158Z,99.99
2019-05-07T03:41:36.150Z,99.99
2019-05-07T03:42:36.144Z,99.99
2019-05-07T03:43:36.156Z,99.99
2019-05-07T03:44:36.122Z,99.99
2019-05-07T03:45:36.118Z,99.99
2019-05-07T03:46:52.798Z,99.99
2019-05-07T03:47:37.090Z,99.99
2019-05-07T03:48:36.112Z,99.99
2019-05-07T03:49:36.067Z,99.99
2019-05-07T03:50:36.053Z,99.99
2019-05-07T03:51:36.041Z,99.99
2019-05-07T03:52:36.033Z,99.99
2019-05-07T03:53:36.019Z,99.99
2019-05-07T03:54:36.042Z,99.99
2019-05-07T03:55:36.000Z,99.99
2019-05-07T03:56:36.011Z,99.99
2019-05-07T03:57:35.982Z,99.99
2019-05-07T03:58:35.967Z,99.99
2019-05-07T03:59:35.980Z,99.99
2019-05-07T04:00:35.949Z,99.99
2019-05-07T04:01:35.976Z,99.99
2019-05-07T04:02:35.936Z,99.99
2019-05-07T04:03:35.918Z,99.99
2019-05-07T04:04:35.927Z,99.99
2019-05-07T04:05:35.913Z,99.99
2019-05-07T04:06:35.887Z,99.99
2019-05-07T04:07:35.873Z,99.99
2019-05-07T04:08:35.861Z,99.99
2019-05-07T04:09:35.881Z,99.99
2019-05-07T04:10:35.844Z,99.99
2019-05-07T04:11:35.828Z,99.99
2019-05-07T04:12:35.821Z,99.99
2019-05-07T04:13:35.809Z,99.99
2019-05-07T04:14:35.829Z,99.99
2019-05-07T04:15:35.782Z,99.99
2019-05-07T04:16:35.776Z,99.99
2019-05-07T04:17:35.766Z,99.99
2019-05-07T04:18:35.755Z,99.99
2019-05-07T04:19:35.766Z,99.99
2019-05-07T04:20:35.732Z,99.99
2019-05-07T04:21:35.721Z,99.74
2019-05-07T04:22:35.706Z,99.99
2019-05-07T04:23:35.711Z,99.99
2019-05-07T04:24:35.713Z,99.85
2019-05-07T04:25:35.681Z,99.95
2019-05-07T04:26:35.672Z,99.85
2019-05-07T04:27:35.656Z,99.85
2019-05-07T04:28:35.658Z,99.64
2019-05-07T04:29:35.664Z,99.29
2019-05-07T04:30:35.642Z,99.49
2019-05-07T04:31:35.612Z,99.49
2019-05-07T04:32:35.602Z,99.60
2019-05-07T04:33:35.619Z,99.39
2019-05-07T04:34:35.580Z,99.39
2019-05-07T04:35:35.578Z,99.70
2019-05-07T04:36:35.561Z,99.49
2019-05-07T04:37:35.665Z,98.41
2019-05-07T04:38:35.577Z,98.93
2019-05-07T04:39:35.528Z,98.41
2019-05-07T04:40:35.528Z,98.72
2019-05-07T04:41:35.510Z,98.52
2019-05-07T04:42:35.514Z,98.21
2019-05-07T04:43:35.519Z,98.10
2019-05-07T04:44:35.474Z,98.31
2019-05-07T04:45:35.467Z,97.89
2019-05-07T04:46:35.453Z,98.00
2019-05-07T04:47:43.212Z,98.10
2019-05-07T04:48:36.464Z,98.31
2019-05-07T04:49:35.420Z,97.49
2019-05-07T04:50:43.073Z,97.89
2019-05-07T04:51:36.401Z,98.41
2019-05-07T04:52:35.389Z,97.44
2019-05-07T04:53:35.404Z,97.59
2019-05-07T04:54:35.378Z,97.49
2019-05-07T04:55:35.355Z,96.72
2019-05-07T04:56:35.347Z,96.55
2019-05-07T04:57:35.341Z,96.24
2019-05-07T04:58:35.351Z,96.20
2019-05-07T04:59:35.318Z,96.09
2019-05-07T05:00:35.311Z,96.03
2019-05-07T05:01:35.298Z,95.99
2019-05-07T05:02:35.282Z,95.89
2019-05-07T05:03:39.009Z,95.64
2019-05-07T05:04:35.263Z,95.64
2019-05-07T05:05:35.273Z,95.74
2019-05-07T05:06:35.295Z,95.32
2019-05-07T05:07:35.232Z,95.32
2019-05-07T05:08:35.239Z,94.71
2019-05-07T05:09:35.205Z,94.56
2019-05-07T05:10:35.195Z,94.87
2019-05-07T05:11:35.197Z,94.97
2019-05-07T05:12:35.176Z,94.62
2019-05-07T05:13:35.188Z,93.94
2019-05-07T05:14:35.157Z,93.63
2019-05-07T05:15:35.162Z,93.28
2019-05-07T05:16:35.135Z,93.22
2019-05-07T05:17:47.141Z,93.18
2019-05-07T05:18:36.140Z,92.66
2019-05-07T05:19:35.098Z,93.18
2019-05-07T05:20:35.087Z,93.03
2019-05-07T05:21:35.075Z,92.46
2019-05-07T05:22:35.063Z,91.73
2019-05-07T05:23:35.089Z,92.55
2019-05-07T05:24:35.047Z,91.73
2019-05-07T05:25:35.045Z,91.32
2019-05-07T05:26:35.026Z,91.01
2019-05-07T05:27:35.012Z,91.36
2019-05-07T05:28:35.040Z,91.36
2019-05-07T05:29:34.992Z,92.29
2019-05-07T05:30:34.988Z,91.36
2019-05-07T05:31:34.986Z,92.29
2019-05-07T05:32:34.958Z,91.67
2019-05-07T05:33:34.949Z,91.52
2019-05-07T05:34:34.962Z,91.16
2019-05-07T05:35:34.950Z,90.74
2019-05-07T05:36:34.920Z,91.42
2019-05-07T05:37:34.931Z,91.16
2019-05-07T05:38:34.894Z,91.63
2019-05-07T05:39:34.916Z,91.63
2019-05-07T05:40:34.881Z,91.48
2019-05-07T05:41:37.794Z,90.55
2019-05-07T05:42:34.855Z,89.83
2019-05-07T05:43:34.847Z,89.73
2019-05-07T05:44:34.864Z,88.70
2019-05-07T05:45:34.828Z,88.90
2019-05-07T05:46:34.819Z,88.84
2019-05-07T05:47:34.806Z,89.32
2019-05-07T05:48:34.792Z,90.14
2019-05-07T05:49:34.808Z,89.62
2019-05-07T05:50:34.775Z,88.49
2019-05-07T05:51:34.768Z,88.96
2019-05-07T05:52:34.751Z,87.83
2019-05-07T05:53:34.738Z,87.52
2019-05-07T05:54:34.755Z,87.52
2019-05-07T05:55:34.715Z,87.83
2019-05-07T05:56:34.713Z,88.41
2019-05-07T05:57:34.700Z,89.03
2019-05-07T05:58:34.683Z,87.44
2019-05-07T05:59:48.211Z,86.52
2019-05-07T06:00:35.673Z,86.10
2019-05-07T06:01:34.653Z,86.15
2019-05-07T06:02:34.646Z,86.45
2019-05-07T06:03:34.633Z,88.89
2019-05-07T06:04:34.655Z,88.37
2019-05-07T06:05:34.698Z,87.40
2019-05-07T06:06:34.600Z,86.47
2019-05-07T06:07:34.588Z,86.37
2019-05-07T06:08:34.579Z,86.16
2019-05-07T06:09:34.597Z,87.05
2019-05-07T06:10:34.575Z,87.98
2019-05-07T06:11:34.546Z,85.92
2019-05-07T06:12:34.539Z,83.18
2019-05-07T06:13:34.529Z,84.31
2019-05-07T06:14:34.542Z,84.21
2019-05-07T06:15:34.528Z,84.27
2019-05-07T06:16:36.605Z,84.58
2019-05-07T06:17:34.488Z,85.98
2019-05-07T06:18:34.471Z,82.90
2019-05-07T06:19:34.486Z,82.24
2019-05-07T06:20:34.454Z,81.15
2019-05-07T06:21:34.465Z,83.51
2019-05-07T06:22:34.429Z,83.00
2019-05-07T06:23:34.415Z,83.17
2019-05-07T06:24:34.434Z,84.40
2019-05-07T06:25:34.408Z,83.78
2019-05-07T06:26:34.384Z,81.42
2019-05-07T06:27:34.378Z,83.17
2019-05-07T06:28:34.365Z,82.41
2019-05-07T06:29:34.379Z,81.28
2019-05-07T06:30:34.345Z,80.60
2019-05-07T06:31:34.331Z,80.80
2019-05-07T06:32:34.327Z,82.10
2019-05-07T06:33:34.310Z,81.69
2019-05-07T06:34:34.390Z,81.38
2019-05-07T06:35:34.295Z,81.45
2019-05-07T06:36:34.284Z,80.07
2019-05-07T06:37:34.271Z,80.28
2019-05-07T06:38:34.262Z,79.15
2019-05-07T06:39:34.280Z,79.70
2019-05-07T06:40:34.236Z,79.94
2019-05-07T06:41:34.231Z,80.49
2019-05-07T06:42:34.216Z,78.60
2019-05-07T06:43:34.208Z,78.70
2019-05-07T06:44:34.223Z,76.72
2019-05-07T06:45:35.444Z,76.96
2019-05-07T06:46:34.176Z,78.33
2019-05-07T06:47:34.162Z,78.09
2019-05-07T06:48:41.853Z,78.49
2019-05-07T06:49:35.136Z,76.51
2019-05-07T06:50:34.129Z,73.85
2019-05-07T06:51:34.119Z,73.10
2019-05-07T06:52:34.112Z,73.71
2019-05-07T06:53:34.130Z,73.50
2019-05-07T06:54:34.098Z,69.83
2019-05-07T06:55:34.087Z,64.84
2019-05-07T06:56:34.064Z,67.38
2019-05-07T06:57:34.058Z,65.34
2019-05-07T06:58:34.072Z,68.34
2019-05-07T06:59:34.759Z,65.53
2019-05-07T07:00:34.021Z,64.26
2019-05-07T07:01:34.023Z,65.42
2019-05-07T07:02:33.995Z,67.24
2019-05-07T07:03:34.014Z,67.04
2019-05-07T07:04:33.981Z,70.61
2019-05-07T07:05:33.968Z,71.59
2019-05-07T07:06:33.962Z,70.10
2019-05-07T07:07:37.238Z,71.97
2019-05-07T07:08:33.965Z,69.48
2019-05-07T07:09:33.923Z,71.53
2019-05-07T07:10:33.914Z,69.15
2019-05-07T07:11:33.992Z,66.55
2019-05-07T07:12:33.894Z,70.51
2019-05-07T07:13:33.909Z,68.12
2019-05-07T07:14:33.877Z,69.04
2019-05-07T07:15:33.863Z,74.76
2019-05-07T07:16:33.847Z,73.30
2019-05-07T07:17:33.844Z,76.10
2019-05-07T07:18:48.174Z,76.40
2019-05-07T07:19:36.196Z,78.83
2019-05-07T07:20:33.809Z,73.13
2019-05-07T07:21:33.795Z,70.50
2019-05-07T07:22:33.802Z,70.43
2019-05-07T07:23:33.823Z,71.12
2019-05-07T07:24:33.767Z,69.07
2019-05-07T07:25:33.768Z,65.95
2019-05-07T07:26:33.744Z,67.32
2019-05-07T07:27:33.736Z,65.48
2019-05-07T07:28:33.727Z,68.81
2019-05-07T07:29:33.781Z,67.85
2019-05-07T07:30:33.708Z,71.15
2019-05-07T07:31:33.692Z,67.27
2019-05-07T07:32:33.679Z,67.54
2019-05-07T07:33:33.672Z,69.71
2019-05-07T07:34:33.686Z,67.77
2019-05-07T07:35:33.649Z,66.99
2019-05-07T07:36:33.639Z,68.12
2019-05-07T07:37:33.623Z,63.63
2019-05-07T07:38:33.622Z,67.79
2019-05-07T07:39:33.672Z,64.83
2019-05-07T07:40:33.594Z,65.94
2019-05-07T07:41:33.585Z,65.43
2019-05-07T07:42:33.578Z,66.01
2019-05-07T07:43:33.560Z,69.56
2019-05-07T07:44:33.578Z,64.62
2019-05-07T07:45:33.540Z,66.56
2019-05-07T07:46:33.531Z,66.90
2019-05-07T07:47:33.521Z,70.95
2019-05-07T07:48:33.517Z,69.79
2019-05-07T07:49:33.531Z,67.92
2019-05-07T07:50:33.487Z,69.52
2019-05-07T07:51:41.537Z,65.54
2019-05-07T07:52:34.475Z,67.96
2019-05-07T07:53:35.475Z,64.79
2019-05-07T07:54:33.473Z,67.45
2019-05-07T07:55:33.439Z,64.11
2019-05-07T07:56:48.306Z,64.96
2019-05-07T07:57:34.417Z,65.98
2019-05-07T07:58:34.249Z,66.63
2019-05-07T07:59:33.420Z,67.96
2019-05-07T08:00:33.389Z,65.81
2019-05-07T08:01:33.375Z,65.78
2019-05-07T08:02:33.362Z,67.08
2019-05-07T08:03:33.358Z,65.01
2019-05-07T08:04:33.367Z,66.77
2019-05-07T08:05:33.335Z,60.58
2019-05-07T08:06:33.321Z,57.52
2019-05-07T08:07:33.322Z,58.16
2019-05-07T08:08:33.306Z,60.89
2019-05-07T08:09:33.330Z,61.88
2019-05-07T08:10:33.285Z,61.59
2019-05-07T08:11:33.288Z,59.12
2019-05-07T08:12:33.258Z,60.16
2019-05-07T08:13:33.249Z,62.49
2019-05-07T08:14:33.287Z,65.92
2019-05-07T08:15:33.268Z,65.68
2019-05-07T08:16:33.220Z,64.87
2019-05-07T08:17:33.211Z,60.93
2019-05-07T08:18:33.229Z,62.36
2019-05-07T08:19:33.186Z,64.66
2019-05-07T08:20:33.207Z,65.16
2019-05-07T08:21:33.342Z,67.00
2019-05-07T08:22:33.156Z,65.14
2019-05-07T08:23:33.191Z,60.54
2019-05-07T08:24:33.186Z,59.14
2019-05-07T08:25:33.335Z,59.60
2019-05-07T08:26:33.113Z,59.83
2019-05-07T08:27:33.135Z,57.65
2019-05-07T08:28:33.105Z,57.90
2019-05-07T08:29:33.082Z,57.39
2019-05-07T08:30:33.094Z,58.14
2019-05-07T08:31:33.060Z,58.75
2019-05-07T08:32:33.048Z,57.70
2019-05-07T08:33:33.040Z,55.13
2019-05-07T08:34:33.034Z,54.33
2019-05-07T08:35:33.052Z,54.94
2019-05-07T08:36:33.238Z,56.04
2019-05-07T08:37:32.996Z,54.54
2019-05-07T08:38:32.980Z,54.31
2019-05-07T08:39:32.973Z,54.03
2019-05-07T08:40:32.995Z,52.25
2019-05-07T08:41:32.950Z,51.54
2019-05-07T08:42:32.941Z,51.07
2019-05-07T08:43:33.022Z,47.52
2019-05-07T08:44:32.921Z,48.25
2019-05-07T08:45:33.004Z,50.00
2019-05-07T08:46:32.923Z,47.87
2019-05-07T08:47:32.888Z,47.89
2019-05-07T08:48:32.880Z,49.47
2019-05-07T08:49:38.926Z,46.81
2019-05-07T08:50:33.894Z,46.95
2019-05-07T08:51:32.849Z,47.06
2019-05-07T08:52:32.846Z,44.95
2019-05-07T08:53:32.934Z,40.36
2019-05-07T08:54:32.814Z,39.25
2019-05-07T08:55:32.803Z,42.40
2019-05-07T08:56:32.825Z,44.78
2019-05-07T08:57:32.793Z,46.67
2019-05-07T08:58:32.782Z,48.23
2019-05-07T08:59:32.766Z,47.99
2019-05-07T09:00:32.754Z,47.34
2019-05-07T09:01:32.766Z,48.39
2019-05-07T09:02:32.789Z,46.69
2019-05-07T09:03:32.718Z,44.96
2019-05-07T09:04:33.055Z,45.78
2019-05-07T09:05:32.707Z,42.40
2019-05-07T09:06:32.723Z,42.60
2019-05-07T09:07:32.680Z,40.75
2019-05-07T09:08:32.668Z,43.51
2019-05-07T09:09:32.867Z,45.72
2019-05-07T09:10:32.730Z,46.39
2019-05-07T09:11:32.667Z,47.43
2019-05-07T09:12:32.637Z,48.04
2019-05-07T09:13:33.328Z,48.16
2019-05-07T09:14:32.624Z,47.51
2019-05-07T09:15:32.595Z,47.46
2019-05-07T09:16:32.614Z,46.88
2019-05-07T09:17:32.576Z,45.51
2019-05-07T09:18:32.567Z,43.77
2019-05-07T09:19:40.477Z,44.09
2019-05-07T09:20:33.547Z,42.43
2019-05-07T09:21:32.576Z,42.47
2019-05-07T09:22:32.590Z,43.85
2019-05-07T09:23:32.513Z,43.91
2019-05-07T09:24:33.374Z,46.58
2019-05-07T09:25:32.585Z,48.54
2019-05-07T09:26:32.483Z,50.24
2019-05-07T09:27:32.794Z,47.80
2019-05-07T09:28:32.693Z,49.71
2019-05-07T09:29:32.493Z,46.84
2019-05-07T09:30:32.758Z,46.89
2019-05-07T09:31:32.436Z,51.67
2019-05-07T09:32:32.787Z,50.01
2019-05-07T09:33:32.403Z,49.20
2019-05-07T09:34:32.752Z,47.90
2019-05-07T09:35:32.388Z,48.13
2019-05-07T09:36:32.370Z,48.41
2019-05-07T09:37:32.696Z,46.21
2019-05-07T09:38:32.856Z,44.79
2019-05-07T09:39:32.557Z,45.33
2019-05-07T09:40:32.331Z,44.90
2019-05-07T09:41:32.746Z,45.03
2019-05-07T09:42:33.280Z,45.97
2019-05-07T09:43:32.633Z,47.55
2019-05-07T09:44:32.591Z,48.21
2019-05-07T09:45:32.883Z,50.70
2019-05-07T09:46:32.654Z,49.73
2019-05-07T09:47:32.648Z,50.40
2019-05-07T09:48:33.792Z,50.01
2019-05-07T09:49:32.645Z,50.01
2019-05-07T09:50:32.657Z,49.64
2019-05-07T09:51:32.346Z,47.19
2019-05-07T09:52:32.338Z,50.82
2019-05-07T09:53:32.276Z,50.05
2019-05-07T09:54:32.446Z,52.22
2019-05-07T09:55:32.735Z,51.79
2019-05-07T09:56:32.165Z,51.53
2019-05-07T09:57:34.655Z,51.18
2019-05-07T09:58:36.659Z,51.00
2019-05-07T09:59:33.126Z,51.26
2019-05-07T10:00:32.202Z,50.31
2019-05-07T10:01:32.162Z,51.08
2019-05-07T10:02:32.242Z,50.09
2019-05-07T10:03:32.542Z,48.11
2019-05-07T10:04:32.716Z,47.81
2019-05-07T10:05:32.288Z,48.14
2019-05-07T10:06:32.242Z,48.32
2019-05-07T10:07:32.614Z,48.71
2019-05-07T10:08:32.041Z,45.89
2019-05-07T10:09:32.864Z,44.46
2019-05-07T10:10:32.935Z,44.06
2019-05-07T10:11:32.871Z,45.37
2019-05-07T10:12:32.956Z,46.01
2019-05-07T10:13:33.041Z,44.20
2019-05-07T10:14:33.049Z,45.36
2019-05-07T10:15:33.149Z,46.30
2019-05-07T10:16:31.955Z,47.11
2019-05-07T10:17:32.765Z,48.74
2019-05-07T10:18:32.100Z,48.64
2019-05-07T10:19:32.464Z,48.31
2019-05-07T10:20:32.748Z,46.89
2019-05-07T10:21:31.897Z,45.62
2019-05-07T10:22:32.265Z,45.11
2019-05-07T10:23:31.904Z,46.01
2019-05-07T10:24:31.867Z,45.58
2019-05-07T10:25:32.789Z,44.59
2019-05-07T10:26:32.285Z,45.64
2019-05-07T10:27:32.432Z,46.30
2019-05-07T10:28:32.197Z,46.89
2019-05-07T10:29:32.337Z,47.21
2019-05-07T10:30:32.224Z,48.28
2019-05-07T10:31:32.114Z,47.35
2019-05-07T10:32:32.229Z,49.40
2019-05-07T10:33:32.097Z,47.75
2019-05-07T10:34:31.762Z,47.45
2019-05-07T10:35:33.745Z,47.09
2019-05-07T10:36:32.115Z,48.19
2019-05-07T10:37:32.026Z,46.72
2019-05-07T10:38:31.749Z,45.48
2019-05-07T10:39:32.572Z,45.17
2019-05-07T10:40:32.714Z,44.56
2019-05-07T10:41:31.929Z,43.85
2019-05-07T10:42:32.361Z,42.19
2019-05-07T10:43:32.737Z,43.30
2019-05-07T10:44:32.162Z,45.60
2019-05-07T10:45:32.263Z,45.80
2019-05-07T10:46:31.997Z,44.91
2019-05-07T10:47:31.627Z,45.34
2019-05-07T10:48:32.074Z,45.52
2019-05-07T10:49:31.812Z,45.83
2019-05-07T10:50:38.378Z,44.97
2019-05-07T10:51:32.581Z,44.10
2019-05-07T10:52:31.959Z,43.37
2019-05-07T10:53:32.135Z,43.84
2019-05-07T10:54:31.553Z,43.81
2019-05-07T10:55:32.808Z,42.43
2019-05-07T10:56:32.667Z,43.61
2019-05-07T10:57:32.879Z,43.49
2019-05-07T10:58:32.171Z,42.52
2019-05-07T10:59:31.495Z,40.95
2019-05-07T11:00:33.078Z,41.38
2019-05-07T11:01:32.870Z,41.32
2019-05-07T11:02:32.455Z,39.25
2019-05-07T11:03:32.430Z,39.26
2019-05-07T11:04:40.129Z,39.39
2019-05-07T11:05:32.806Z,39.40
2019-05-07T11:06:32.375Z,39.84
2019-05-07T11:07:32.795Z,39.86
2019-05-07T11:08:32.936Z,39.73
2019-05-07T11:09:32.793Z,39.87
2019-05-07T11:10:32.602Z,35.92
2019-05-07T11:11:31.882Z,37.31
2019-05-07T11:12:31.984Z,36.71
2019-05-07T11:13:31.379Z,38.70
2019-05-07T11:14:32.118Z,38.39
2019-05-07T11:15:32.731Z,39.95
2019-05-07T11:16:32.445Z,39.75
2019-05-07T11:17:32.670Z,39.37
2019-05-07T11:18:32.304Z,36.89
2019-05-07T11:19:32.450Z,35.35
2019-05-07T11:20:32.034Z,35.13
2019-05-07T11:21:33.333Z,34.78
2019-05-07T11:22:32.777Z,36.02
2019-05-07T11:23:32.708Z,35.03
2019-05-07T11:24:32.107Z,34.59
2019-05-07T11:25:31.233Z,35.66
2019-05-07T11:26:32.923Z,38.40
2019-05-07T11:27:32.966Z,36.17
2019-05-07T11:28:32.406Z,34.63
2019-05-07T11:29:32.786Z,34.47
2019-05-07T11:30:32.068Z,36.54
2019-05-07T11:31:33.074Z,37.82
2019-05-07T11:32:32.142Z,37.89
2019-05-07T11:33:32.527Z,41.72
2019-05-07T11:34:32.727Z,43.91
2019-05-07T11:35:31.883Z,43.89
2019-05-07T11:36:32.060Z,41.48
2019-05-07T11:37:31.110Z,43.71
2019-05-07T11:38:33.119Z,45.66
2019-05-07T11:39:33.095Z,46.45
2019-05-07T11:40:32.054Z,44.50
2019-05-07T11:41:32.088Z,42.43
2019-05-07T11:42:31.063Z,40.69
2019-05-07T11:43:32.647Z,41.32
2019-05-07T11:44:32.071Z,39.02
2019-05-07T11:45:32.142Z,38.17
2019-05-07T11:46:32.761Z,35.92
2019-05-07T11:47:31.903Z,36.64
2019-05-07T11:48:33.579Z,35.86
2019-05-07T11:49:32.765Z,34.19
2019-05-07T11:50:32.866Z,32.53
2019-05-07T11:51:33.278Z,32.62
2019-05-07T11:52:35.177Z,33.67
2019-05-07T11:53:32.699Z,35.63
2019-05-07T11:54:31.826Z,38.25
2019-05-07T11:55:30.926Z,35.93
2019-05-07T11:56:32.835Z,35.45
2019-05-07T11:57:30.911Z,35.57
2019-05-07T11:58:32.558Z,37.19
2019-05-07T11:59:32.600Z,37.82
2019-05-07T12:00:32.362Z,36.10
2019-05-07T12:01:43.519Z,36.04
2019-05-07T12:02:32.069Z,36.98
2019-05-07T12:03:32.461Z,37.76
2019-05-07T12:04:32.044Z,40.11
2019-05-07T12:05:33.032Z,40.73
2019-05-07T12:06:32.213Z,40.69
2019-05-07T12:07:32.640Z,42.54
2019-05-07T12:08:41.067Z,41.58
2019-05-07T12:09:33.347Z,40.87
2019-05-07T12:10:32.594Z,41.70
2019-05-07T12:11:32.205Z,43.18
2019-05-07T12:12:32.614Z,43.00
2019-05-07T12:13:32.394Z,43.38
2019-05-07T12:14:32.555Z,42.33
2019-05-07T12:15:32.469Z,42.63
2019-05-07T12:16:32.133Z,42.84
2019-05-07T12:17:31.672Z,41.68
2019-05-07T12:18:32.022Z,41.62
2019-05-07T12:19:32.915Z,42.88
2019-05-07T12:20:32.384Z,43.10
2019-05-07T12:21:30.658Z,43.06
2019-05-07T12:22:30.646Z,42.57
2019-05-07T12:23:33.050Z,43.00
2019-05-07T12:24:32.689Z,42.57
2019-05-07T12:25:32.022Z,42.25
2019-05-07T12:26:30.613Z,42.59
2019-05-07T12:27:32.324Z,43.43
2019-05-07T12:28:32.583Z,44.85
2019-05-07T12:29:32.226Z,43.38
2019-05-07T12:30:32.484Z,43.35
2019-05-07T12:31:30.552Z,43.20
2019-05-07T12:32:32.362Z,42.47
2019-05-07T12:33:32.342Z,42.35
2019-05-07T12:34:31.880Z,40.94
2019-05-07T12:35:30.517Z,40.00
2019-05-07T12:36:32.040Z,39.58
2019-05-07T12:37:32.018Z,40.04
2019-05-07T12:38:32.257Z,40.12
2019-05-07T12:39:31.878Z,40.33
2019-05-07T12:40:32.398Z,40.36
2019-05-07T12:41:33.036Z,40.79
2019-05-07T12:42:32.601Z,41.05
2019-05-07T12:43:31.890Z,42.39
2019-05-07T12:44:31.983Z,42.49
2019-05-07T12:45:30.405Z,42.25
2019-05-07T12:46:30.391Z,41.34
2019-05-07T12:47:30.389Z,40.26
2019-05-07T12:48:30.378Z,41.28
2019-05-07T12:49:32.337Z,41.60
2019-05-07T12:50:32.188Z,43.30
2019-05-07T12:51:34.530Z,44.32
2019-05-07T12:52:32.036Z,44.65